Neponset, Illinois
Current Conditions -  °F | °C
As of 5:35 PM on Monday 20 Oct 2014 (Local Time) from KC75 Reporting Station
Scattered Clouds Scattered Clouds  
Wind Chill: 63°   Ceiling: Unl
Heat Index: 63°   Visibility: 10mi
Dew Point: 42°   Wind: 9mph
Humidity: 47%   Direction: 330°NNW
Pressure: 29.93"   Gusts: NA
Location:  41.3°N, 89.79°W
Report Text: KC75 202235Z AUTO 33008KT 10SM SCT055 17/06 A2993 RMK AO2 T01710058
Loading
Personal Weather Stations






























Interactive Weather Map
Tropical Storm Tracking
New forecast layout! Learn more

10-Day Weather Forecast

Advertisements
Track Severe Weather on mobile